Elm Creek, Canada
Current Conditions -  °F | °C
As of 3:00 AM on Monday 20 Oct 2014 (Local Time) from CYWG Reporting Station
Few Clouds Few Clouds  
Wind Chill: 29°   Ceiling: Unl
Heat Index: 36°   Visibility: 15mi
Dew Point: 34°   Wind: 8mph
Humidity: 93%   Direction: 360°N
Pressure: 30.01"   Gusts: NA
Location:  49.67°N, 98°W
Report Text: CYWG 200800Z 36007KT 15SM FEW220 02/01 A3001 RMK CI1 SLP168
Loading
Personal Weather Stations






























Interactive Weather Map
Tropical Storm Tracking
New forecast layout! Learn more

10-Day Weather Forecast

Advertisements
Track Severe Weather on mobile